createdAt,value
2019-05-21T07:26:51.768Z,35.87
2019-05-21T07:29:19.195Z,36.20
2019-05-21T07:31:46.844Z,33.43
2019-05-21T07:34:14.283Z,32.73
2019-05-21T07:36:41.734Z,32.87
2019-05-21T07:39:09.151Z,40.53
2019-05-21T07:41:36.619Z,36.67
2019-05-21T07:44:04.044Z,35.37
2019-05-21T07:46:31.446Z,37.63
2019-05-21T07:48:58.926Z,37.43
2019-05-21T07:51:26.356Z,37.47
2019-05-21T07:53:53.773Z,33.90
2019-05-21T07:56:21.227Z,38.17
2019-05-21T07:58:48.631Z,37.93
2019-05-21T08:01:16.040Z,38.93
2019-05-21T08:03:43.482Z,36.33
2019-05-21T08:06:10.899Z,37.10
2019-05-21T08:08:38.301Z,37.90
2019-05-21T08:11:06.298Z,38.87
2019-05-21T08:13:33.619Z,36.57
2019-05-21T08:16:01.032Z,35.40
2019-05-21T08:18:28.492Z,34.97
2019-05-21T08:20:55.898Z,39.70
2019-05-21T08:23:23.306Z,35.00
2019-05-21T08:25:50.750Z,38.03
2019-05-21T08:28:18.278Z,43.00
2019-05-21T08:30:45.696Z,40.43
2019-05-21T08:33:13.153Z,36.17
2019-05-21T08:35:40.574Z,34.47
2019-05-21T08:38:07.972Z,33.73
2019-05-21T08:40:35.411Z,33.33
2019-05-21T08:43:02.844Z,36.90
2019-05-21T08:45:30.265Z,33.87
2019-05-21T08:47:57.712Z,39.43
2019-05-21T08:50:25.113Z,37.87
2019-05-21T08:52:52.528Z,36.63
2019-05-21T08:55:19.998Z,37.57
2019-05-21T08:58:05.097Z,33.73
2019-05-21T09:00:14.843Z,30.07
2019-05-21T09:02:42.293Z,29.27
2019-05-21T09:05:09.721Z,29.50
2019-05-21T09:07:37.142Z,30.87
2019-05-21T09:10:07.252Z,26.77
2019-05-21T09:12:37.155Z,24.13
2019-05-21T09:15:04.564Z,23.93
2019-05-21T09:17:32.148Z,24.47
2019-05-21T09:19:59.551Z,24.20
2019-05-21T09:22:26.973Z,23.57
2019-05-21T09:24:54.416Z,21.90
2019-05-21T09:27:21.830Z,19.20
2019-05-21T09:29:49.344Z,16.70
2019-05-21T09:32:16.796Z,19.50
2019-05-21T09:34:48.659Z,21.97
2019-05-21T09:37:19.652Z,15.77
2019-05-21T09:39:42.005Z,19.37
2019-05-21T09:42:09.408Z,18.53
2019-05-21T09:44:36.839Z,21.07
2019-05-21T09:47:04.283Z,19.27
2019-05-21T09:49:31.700Z,19.30
2019-05-21T09:51:59.116Z,19.37
2019-05-21T09:54:26.646Z,14.40
2019-05-21T09:56:54.065Z,17.50
2019-05-21T09:59:21.493Z,15.63
2019-05-21T10:01:55.346Z,14.70
2019-05-21T10:04:22.727Z,15.80
2019-05-21T10:06:50.132Z,18.67
2019-05-21T10:09:17.562Z,16.97
2019-05-21T10:11:45.020Z,15.03
2019-05-21T10:14:12.396Z,15.73
2019-05-21T10:16:39.867Z,16.83
2019-05-21T10:19:07.278Z,15.97
2019-05-21T10:21:34.701Z,17.87
2019-05-21T10:24:02.323Z,15.50
2019-05-21T10:26:29.745Z,16.23
2019-05-21T10:28:57.155Z,17.27
2019-05-21T10:31:24.824Z,16.60
2019-05-21T10:33:52.240Z,16.03
2019-05-21T10:36:19.650Z,18.23
2019-05-21T10:38:47.095Z,20.10
2019-05-21T10:41:14.514Z,17.47
2019-05-21T10:43:41.997Z,14.43
2019-05-21T10:46:09.390Z,17.27
2019-05-21T10:48:36.818Z,14.97
2019-05-21T10:51:04.229Z,15.60
2019-05-21T10:53:31.665Z,18.70
2019-05-21T10:55:59.067Z,21.90
2019-05-21T10:58:26.485Z,16.33
2019-05-21T11:00:53.924Z,18.33
2019-05-21T11:03:39.620Z,17.27
2019-05-21T11:06:09.992Z,13.40
2019-05-21T11:08:34.805Z,19.60
2019-05-21T11:11:02.223Z,17.60
2019-05-21T11:13:29.670Z,18.17
2019-05-21T11:15:57.065Z,14.77
2019-05-21T11:18:24.495Z,15.97
2019-05-21T11:20:52.002Z,17.87
2019-05-21T11:23:19.382Z,15.17
2019-05-21T11:25:47.717Z,16.07
2019-05-21T11:28:15.160Z,16.03
2019-05-21T11:30:43.757Z,14.83
2019-05-21T11:33:11.170Z,12.67
2019-05-21T11:35:38.624Z,13.27
2019-05-21T11:38:06.032Z,14.70
2019-05-21T11:40:33.462Z,13.93
2019-05-21T11:43:00.950Z,15.87
2019-05-21T11:45:32.114Z,16.03
2019-05-21T11:47:55.811Z,16.47
2019-05-21T11:50:23.322Z,13.80
2019-05-21T11:52:50.739Z,13.67
2019-05-21T11:55:18.184Z,14.17
2019-05-21T11:57:45.634Z,12.93
2019-05-21T12:00:13.052Z,15.17
2019-05-21T12:02:40.481Z,11.80
2019-05-21T12:05:07.934Z,14.77
2019-05-21T12:07:35.359Z,20.87
2019-05-21T12:10:02.766Z,13.33
2019-05-21T12:12:30.384Z,15.67
2019-05-21T12:14:57.804Z,12.67
2019-05-21T12:17:25.308Z,9.93
2019-05-21T12:19:52.744Z,14.93
2019-05-21T12:22:20.132Z,10.93
2019-05-21T12:24:47.533Z,11.10
2019-05-21T12:27:14.964Z,8.73
2019-05-21T12:29:42.363Z,12.30
2019-05-21T12:32:09.782Z,14.10
2019-05-21T12:34:38.990Z,10.70
2019-05-21T12:37:05.259Z,8.67
2019-05-21T12:39:32.654Z,12.20
2019-05-21T12:42:00.083Z,10.97
2019-05-21T12:44:27.546Z,11.73
2019-05-21T12:46:54.942Z,11.43
2019-05-21T12:49:22.421Z,11.43
2019-05-21T12:51:49.834Z,8.07
2019-05-21T12:54:17.236Z,8.60
2019-05-21T12:56:44.830Z,12.43
2019-05-21T12:59:12.231Z,10.07
2019-05-21T13:01:39.645Z,11.03
2019-05-21T13:04:07.094Z,10.37
2019-05-21T13:06:34.506Z,10.30
2019-05-21T13:09:01.919Z,9.83
2019-05-21T13:11:29.357Z,13.20
2019-05-21T13:13:56.765Z,9.67
2019-05-21T13:16:24.170Z,12.20
2019-05-21T13:18:51.619Z,10.27
2019-05-21T13:21:19.026Z,12.27
2019-05-21T13:23:46.456Z,11.40
2019-05-21T13:26:13.897Z,24.83
2019-05-21T13:28:41.298Z,8.97
2019-05-21T13:31:08.731Z,13.97
2019-05-21T13:33:36.174Z,12.67
2019-05-21T13:36:03.864Z,10.60
2019-05-21T13:38:31.269Z,8.93
2019-05-21T13:40:58.896Z,8.77
2019-05-21T13:43:26.298Z,11.93
2019-05-21T13:45:53.699Z,12.90
2019-05-21T13:48:21.119Z,7.63
2019-05-21T13:50:48.529Z,6.67
2019-05-21T13:53:15.964Z,9.63
2019-05-21T13:55:43.356Z,8.43
2019-05-21T13:58:10.753Z,7.40
2019-05-21T14:00:43.862Z,7.80
2019-05-21T14:03:11.458Z,9.10
2019-05-21T14:05:38.862Z,6.40
2019-05-21T14:08:06.280Z,9.93
2019-05-21T14:10:33.724Z,9.03
2019-05-21T14:13:01.237Z,10.73
2019-05-21T14:15:28.557Z,7.07
2019-05-21T14:17:56.015Z,7.60
2019-05-21T14:20:26.330Z,8.37
2019-05-21T14:22:53.755Z,5.87
2019-05-21T14:25:21.374Z,8.30
2019-05-21T14:27:48.788Z,7.23
2019-05-21T14:30:16.212Z,9.47
2019-05-21T14:32:43.662Z,11.10
2019-05-21T14:35:11.085Z,8.10
2019-05-21T14:37:38.805Z,8.23
2019-05-21T14:40:06.237Z,6.80
2019-05-21T14:42:33.642Z,9.60
2019-05-21T14:45:01.055Z,7.87
2019-05-21T14:47:28.524Z,6.00
2019-05-21T14:49:55.922Z,8.30
2019-05-21T14:52:23.359Z,10.17
2019-05-21T14:54:50.798Z,7.43
2019-05-21T14:57:18.215Z,9.27
2019-05-21T14:59:45.628Z,9.60
2019-05-21T15:02:13.065Z,9.33
2019-05-21T15:04:40.567Z,9.33
2019-05-21T15:07:07.874Z,8.53
2019-05-21T15:09:35.669Z,9.37
2019-05-21T15:12:03.066Z,7.93
2019-05-21T15:14:30.477Z,8.60
2019-05-21T15:16:57.925Z,7.23
2019-05-21T15:19:25.323Z,8.60
2019-05-21T15:21:52.729Z,6.93
2019-05-21T15:24:20.197Z,8.17
2019-05-21T15:26:47.585Z,8.13
2019-05-21T15:29:15.003Z,8.03
2019-05-21T15:31:42.459Z,5.73
2019-05-21T15:34:09.861Z,7.80
2019-05-21T15:36:37.295Z,8.70
2019-05-21T15:39:04.969Z,7.50
2019-05-21T15:41:32.376Z,8.10
2019-05-21T15:43:59.781Z,7.90
2019-05-21T15:46:27.233Z,7.63
2019-05-21T15:48:54.680Z,8.47
2019-05-21T15:51:22.059Z,6.93
2019-05-21T15:53:49.766Z,8.83
2019-05-21T15:56:17.162Z,5.67
2019-05-21T15:58:44.571Z,8.47
2019-05-21T16:01:12.009Z,8.20
2019-05-21T16:03:39.440Z,7.53
2019-05-21T16:06:06.887Z,8.77
2019-05-21T16:08:34.334Z,8.77
2019-05-21T16:11:01.892Z,8.30
2019-05-21T16:13:30.445Z,6.60
2019-05-21T16:15:56.927Z,6.57
2019-05-21T16:18:25.600Z,8.27
2019-05-21T16:20:53.011Z,7.33
2019-05-21T16:23:20.466Z,6.70
2019-05-21T16:25:47.894Z,8.43
2019-05-21T16:28:15.316Z,7.53
2019-05-21T16:30:42.761Z,6.57
2019-05-21T16:33:10.165Z,7.23
2019-05-21T16:35:37.571Z,5.13
2019-05-21T16:38:05.128Z,6.53
2019-05-21T16:40:32.548Z,6.60
2019-05-21T16:42:59.956Z,8.63
2019-05-21T16:45:27.397Z,8.30
2019-05-21T16:47:54.826Z,9.20
2019-05-21T16:50:22.264Z,7.17
2019-05-21T16:52:49.798Z,13.90
2019-05-21T16:55:17.176Z,7.73
2019-05-21T16:57:44.584Z,9.87
2019-05-21T17:00:12.068Z,7.27
2019-05-21T17:02:42.386Z,6.80
2019-05-21T17:05:09.806Z,10.33
2019-05-21T17:07:37.271Z,10.63
2019-05-21T17:10:04.683Z,9.23
2019-05-21T17:12:32.076Z,9.83
2019-05-21T17:14:59.542Z,7.63
2019-05-21T17:17:26.947Z,9.37
2019-05-21T17:19:54.347Z,7.37
2019-05-21T17:22:21.987Z,9.43
2019-05-21T17:24:49.369Z,8.87
2019-05-21T17:27:16.776Z,6.83
2019-05-21T17:29:44.211Z,7.83
2019-05-21T17:32:11.653Z,7.03
2019-05-21T17:34:39.062Z,8.63
2019-05-21T17:37:06.514Z,10.40
2019-05-21T17:39:33.912Z,8.90
2019-05-21T17:42:14.699Z,9.07
2019-05-21T17:44:29.099Z,11.00
2019-05-21T17:46:56.529Z,7.57
2019-05-21T17:49:23.938Z,9.93
2019-05-21T17:51:51.384Z,9.23
2019-05-21T17:54:18.799Z,7.23
2019-05-21T17:56:46.198Z,7.77
2019-05-21T17:59:13.697Z,10.43
2019-05-21T18:01:41.075Z,8.70
2019-05-21T18:04:08.483Z,9.13
2019-05-21T18:06:36.052Z,8.50
2019-05-21T18:09:03.461Z,8.77
2019-05-21T18:11:30.875Z,8.47
2019-05-21T18:13:58.318Z,7.80
2019-05-21T18:16:25.810Z,10.13
2019-05-21T18:18:53.301Z,7.97
2019-05-21T18:21:20.719Z,10.20
2019-05-21T18:23:48.131Z,8.30
2019-05-21T18:26:15.536Z,9.97
2019-05-21T18:28:43.130Z,9.30
2019-05-21T18:31:10.550Z,11.20
2019-05-21T18:33:37.978Z,13.73
2019-05-21T18:36:05.419Z,11.53
2019-05-21T18:38:32.849Z,12.80
2019-05-21T18:41:00.259Z,13.30
2019-05-21T18:43:28.764Z,14.10
2019-05-21T18:45:56.192Z,14.90
2019-05-21T18:48:23.603Z,15.20
2019-05-21T18:50:51.481Z,15.57
2019-05-21T18:53:18.900Z,13.63
2019-05-21T18:55:46.313Z,14.50
2019-05-21T18:58:17.007Z,13.43
2019-05-21T19:00:41.172Z,14.50
2019-05-21T19:03:08.587Z,14.83
2019-05-21T19:05:36.022Z,17.60
2019-05-21T19:08:03.440Z,15.57
2019-05-21T19:10:30.844Z,17.97
2019-05-21T19:13:00.811Z,16.30
2019-05-21T19:15:25.880Z,19.07
2019-05-21T19:17:53.306Z,17.07
2019-05-21T19:20:20.748Z,19.27
2019-05-21T19:22:48.149Z,18.67
2019-05-21T19:25:15.557Z,21.23
2019-05-21T19:27:43.283Z,17.80
2019-05-21T19:30:10.701Z,19.27
2019-05-21T19:32:38.109Z,21.00
2019-05-21T19:35:05.566Z,18.93
2019-05-21T19:37:33.018Z,21.50
2019-05-21T19:40:00.395Z,19.17
2019-05-21T19:42:27.854Z,21.60
2019-05-21T19:44:55.499Z,20.43
2019-05-21T19:47:22.907Z,23.40
2019-05-21T19:49:50.363Z,21.27
2019-05-21T19:52:17.784Z,20.30
2019-05-21T19:54:45.198Z,22.77
2019-05-21T19:57:12.865Z,23.53
2019-05-21T19:59:40.235Z,21.73
2019-05-21T20:02:07.654Z,22.77
2019-05-21T20:04:35.102Z,23.13
2019-05-21T20:07:02.529Z,26.50
2019-05-21T20:09:29.950Z,25.20
2019-05-21T20:11:57.412Z,24.43
2019-05-21T20:14:24.826Z,26.60
2019-05-21T20:16:52.296Z,25.20
2019-05-21T20:19:19.858Z,24.13
2019-05-21T20:21:47.271Z,28.37
2019-05-21T20:24:14.686Z,27.20
2019-05-21T20:26:42.155Z,26.33
2019-05-21T20:29:09.578Z,22.80
2019-05-21T20:31:36.986Z,28.27
2019-05-21T20:34:04.438Z,26.33
2019-05-21T20:36:31.856Z,24.87
2019-05-21T20:38:59.283Z,26.33
2019-05-21T20:41:27.019Z,27.30
2019-05-21T20:43:58.946Z,28.17
2019-05-21T20:46:24.233Z,28.00
2019-05-21T20:48:51.740Z,26.37
2019-05-21T20:51:19.186Z,30.20
2019-05-21T20:53:46.593Z,32.00
2019-05-21T20:56:14.060Z,31.53
2019-05-21T20:58:41.482Z,32.27
2019-05-21T21:01:08.901Z,31.40
2019-05-21T21:03:36.498Z,32.37
2019-05-21T21:06:03.939Z,32.53
2019-05-21T21:08:31.347Z,33.27
2019-05-21T21:10:58.796Z,30.93
2019-05-21T21:13:26.215Z,34.43
2019-05-21T21:15:53.639Z,34.73
2019-05-21T21:18:21.089Z,32.47
2019-05-21T21:20:48.505Z,32.40
2019-05-21T21:23:15.912Z,33.03
2019-05-21T21:25:43.374Z,32.47
2019-05-21T21:28:10.793Z,35.93
2019-05-21T21:30:38.203Z,31.07
2019-05-21T21:33:05.682Z,37.50
2019-05-21T21:35:33.092Z,36.60
2019-05-21T21:38:00.506Z,35.67
2019-05-21T21:40:27.947Z,34.87
2019-05-21T21:42:55.359Z,37.27
2019-05-21T21:45:22.763Z,36.43
2019-05-21T21:47:51.526Z,35.53
2019-05-21T21:50:18.967Z,37.43
2019-05-21T21:52:46.431Z,35.77
2019-05-21T21:55:13.875Z,35.20
2019-05-21T21:57:41.282Z,39.73
2019-05-21T22:00:28.253Z,35.53
2019-05-21T22:02:55.471Z,41.63
2019-05-21T22:05:25.557Z,38.37
2019-05-21T22:07:53.336Z,38.57
2019-05-21T22:10:20.747Z,37.33
2019-05-21T22:12:48.157Z,42.20
2019-05-21T22:15:15.597Z,37.47
2019-05-21T22:17:43.003Z,41.67
2019-05-21T22:20:10.428Z,37.63
2019-05-21T22:22:37.861Z,34.83
2019-05-21T22:25:05.289Z,39.57
2019-05-21T22:27:32.704Z,35.17
2019-05-21T22:30:00.300Z,33.63
2019-05-21T22:32:27.750Z,36.47
2019-05-21T22:34:55.162Z,37.23
2019-05-21T22:37:22.608Z,39.03
2019-05-21T22:39:50.022Z,40.90
2019-05-21T22:42:17.425Z,40.27
2019-05-21T22:44:44.861Z,35.43
2019-05-21T22:47:12.275Z,39.07
2019-05-21T22:49:39.806Z,38.17
2019-05-21T22:52:07.409Z,36.63
2019-05-21T22:54:34.817Z,40.37
2019-05-21T22:57:02.237Z,39.57
2019-05-21T22:59:29.674Z,39.40
2019-05-21T23:01:57.082Z,41.43
2019-05-21T23:04:24.495Z,42.00
2019-05-21T23:06:51.932Z,38.67
2019-05-21T23:09:19.357Z,40.47
2019-05-21T23:11:46.772Z,40.50
2019-05-21T23:14:14.512Z,38.17
2019-05-21T23:16:41.918Z,41.00
2019-05-21T23:19:09.330Z,38.37
2019-05-21T23:21:36.773Z,39.07
2019-05-21T23:24:04.183Z,43.03
2019-05-21T23:26:31.607Z,42.10
2019-05-21T23:28:59.059Z,47.13
2019-05-21T23:31:26.481Z,43.27
2019-05-21T23:33:53.905Z,45.23
2019-05-21T23:36:21.378Z,47.30
2019-05-21T23:38:48.796Z,45.93
2019-05-21T23:41:16.209Z,54.23
2019-05-21T23:43:43.642Z,51.37
2019-05-21T23:46:11.043Z,49.77
2019-05-21T23:48:38.462Z,54.30
2019-05-21T23:51:06.669Z,47.90
2019-05-21T23:53:34.078Z,49.13
2019-05-21T23:56:01.483Z,57.57
2019-05-21T23:58:29.107Z,54.40
